Time;durP1;ratioP1;P1;durP2;ratioP2;P2;SDS_P1;SDS_P2;PMS_P1;PMS_P2;Temp;Humidity;BMP_temperature;BMP_pressure;BME280_temperature;BME280_humidity;BME280_pressure;Samples;Min_cycle;Max_cycle;Signal;HPM_P1;HPM_P2
2022/11/09 00:00:00;;;;;;;4.20;1.65;;;;;;;-145.48;100.00;64539.38;6052572;29;20041;-95
2022/11/09 00:03:05;;;;;;;4.13;1.40;;;;;;;-145.48;100.00;64539.38;6056810;29;20050;-96
2022/11/09 00:06:07;;;;;;;2.20;1.45;;;;;;;-145.48;100.00;64539.38;6033617;29;20057;-95
2022/11/09 00:09:09;;;;;;;2.25;1.40;;;;;;;-145.48;100.00;64539.38;6017896;29;20049;-96
2022/11/09 00:12:11;;;;;;;2.90;1.50;;;;;;;-145.48;100.00;64539.38;6050399;29;20045;-95
2022/11/09 00:15:12;;;;;;;1.42;1.23;;;;;;;-145.48;100.00;64539.38;6048957;29;20127;-95
2022/11/09 00:18:14;;;;;;;2.60;1.63;;;;;;;-145.48;100.00;64539.38;6049235;29;20163;-95
2022/11/09 00:21:19;;;;;;;3.75;1.60;;;;;;;-145.48;100.00;64539.38;6048211;29;20278;-95
2022/11/09 00:24:20;;;;;;;3.40;1.50;;;;;;;-145.48;100.00;64539.38;6058784;29;20052;-95
2022/11/09 00:27:22;;;;;;;2.05;1.42;;;;;;;-145.48;100.00;64539.38;6048815;29;20053;-95
2022/11/09 00:30:26;;;;;;;3.17;1.25;;;;;;;-145.48;100.00;64539.38;6052875;29;20083;-95
2022/11/09 00:33:28;;;;;;;3.42;1.48;;;;;;;-145.48;100.00;64539.38;6066702;29;20087;-96
2022/11/09 00:36:31;;;;;;;1.60;1.30;;;;;;;-145.48;100.00;64539.38;6053111;29;20055;-95
2022/11/09 00:39:33;;;;;;;2.00;1.50;;;;;;;-145.48;100.00;64539.38;6052309;29;20134;-95
2022/11/09 00:42:35;;;;;;;1.88;1.40;;;;;;;-145.48;100.00;64539.38;6066779;29;20051;-95
2022/11/09 00:45:37;;;;;;;2.20;1.27;;;;;;;-145.48;100.00;64539.38;6051595;29;20126;-96
2022/11/09 00:48:39;;;;;;;2.80;1.60;;;;;;;-145.48;100.00;64539.38;6062968;29;20490;-96
2022/11/09 00:51:41;;;;;;;1.60;1.20;;;;;;;-145.48;100.00;64539.38;6062293;29;20078;-95
2022/11/09 00:54:42;;;;;;;1.95;1.10;;;;;;;-145.48;100.00;64539.38;6036845;29;20132;-96
2022/11/09 00:57:48;;;;;;;4.15;1.42;;;;;;;-145.48;100.00;64539.38;6052633;29;20440;-95
2022/11/09 01:00:51;;;;;;;4.25;1.35;;;;;;;-145.48;100.00;64539.38;6080341;29;20056;-96
2022/11/09 01:03:53;;;;;;;2.40;1.20;;;;;;;-145.48;100.00;64539.38;6052054;29;20471;-95
2022/11/09 01:06:56;;;;;;;1.42;1.20;;;;;;;-145.48;100.00;64539.38;6061466;29;20044;-95
2022/11/09 01:09:58;;;;;;;2.35;1.23;;;;;;;-145.48;100.00;64539.38;6046700;29;20052;-95
2022/11/09 01:12:59;;;;;;;2.35;1.40;;;;;;;-145.48;100.00;64539.38;6048140;29;20045;-95
2022/11/09 01:16:06;;;;;;;2.35;1.20;;;;;;;-145.48;100.00;64539.38;6042908;29;20064;-95
2022/11/09 01:19:10;;;;;;;1.63;1.02;;;;;;;-145.48;100.00;64539.38;6041187;29;20041;-95
2022/11/09 01:22:12;;;;;;;1.70;1.42;;;;;;;-145.48;100.00;64539.38;6043949;29;20056;-95
2022/11/09 01:25:14;;;;;;;4.30;1.40;;;;;;;-145.48;100.00;64539.38;6044584;29;20096;-95
2022/11/09 01:28:15;;;;;;;1.80;1.30;;;;;;;-145.48;100.00;64539.38;6038671;29;20053;-96
2022/11/09 01:31:19;;;;;;;1.83;1.60;;;;;;;-145.48;100.00;64539.38;6038978;29;20044;-96
2022/11/09 01:34:21;;;;;;;2.78;1.20;;;;;;;-145.48;100.00;64539.38;6048019;29;20041;-95
2022/11/09 01:37:23;;;;;;;1.63;1.05;;;;;;;-145.48;100.00;64539.38;6048282;29;20073;-95
2022/11/09 01:40:26;;;;;;;1.92;1.20;;;;;;;-145.48;100.00;64539.38;6045066;29;20084;-95
2022/11/09 01:43:29;;;;;;;1.65;1.25;;;;;;;-145.48;100.00;64539.38;6036579;29;20404;-95
2022/11/09 01:46:54;;;;;;;1.88;1.30;;;;;;;-145.48;100.00;64539.38;6055137;29;20099;-95
2022/11/09 01:49:59;;;;;;;1.38;1.20;;;;;;;-145.48;100.00;64539.38;6028660;29;20049;-95
2022/11/09 01:53:05;;;;;;;2.95;1.45;;;;;;;-145.48;100.00;64539.38;6035141;29;20049;-95
2022/11/09 01:56:10;;;;;;;1.70;1.17;;;;;;;-145.48;100.00;64539.38;6048130;29;20773;-96
2022/11/09 01:59:18;;;;;;;2.60;1.30;;;;;;;-145.48;100.00;64539.38;6050504;29;20053;-95
2022/11/09 02:02:20;;;;;;;2.55;1.25;;;;;;;-145.48;100.00;64539.38;6055188;29;20415;-96
2022/11/09 02:05:25;;;;;;;1.45;1.13;;;;;;;-145.48;100.00;64539.38;6053534;29;20044;-95
2022/11/09 02:08:28;;;;;;;3.35;1.30;;;;;;;-145.48;100.00;64539.38;6061887;29;20425;-96
2022/11/09 02:11:30;;;;;;;2.00;1.30;;;;;;;-145.48;100.00;64539.38;6044131;29;20384;-96
2022/11/09 02:14:34;;;;;;;1.73;1.25;;;;;;;-145.48;100.00;64539.38;6047978;29;20681;-96
2022/11/09 02:17:37;;;;;;;2.10;1.35;;;;;;;-145.48;100.00;64539.38;6039769;29;20492;-95
2022/11/09 02:20:50;;;;;;;2.63;1.30;;;;;;;-145.48;100.00;64539.38;6041714;29;20049;-95
2022/11/09 02:23:52;;;;;;;2.25;1.40;;;;;;;-145.48;100.00;64539.38;6042154;29;20053;-95
2022/11/09 02:26:54;;;;;;;3.22;1.30;;;;;;;-145.48;100.00;64539.38;6034752;29;20041;-95
2022/11/09 02:29:58;;;;;;;1.50;1.40;;;;;;;-145.48;100.00;64539.38;6036697;29;20088;-96
2022/11/09 02:33:00;;;;;;;1.98;1.13;;;;;;;-145.48;100.00;64539.38;6054128;29;20048;-95
2022/11/09 02:36:02;;;;;;;2.72;1.33;;;;;;;-145.48;100.00;64539.38;6044516;29;20136;-95
2022/11/09 02:39:04;;;;;;;1.52;1.05;;;;;;;-145.48;100.00;64539.38;6036346;29;20109;-96
2022/11/09 02:42:10;;;;;;;2.67;1.48;;;;;;;-145.48;100.00;64539.38;6040756;29;20053;-95
2022/11/09 02:45:18;;;;;;;1.40;1.30;;;;;;;-145.48;100.00;64539.38;6045542;29;20524;-95
2022/11/09 02:48:20;;;;;;;2.90;1.77;;;;;;;-145.48;100.00;64539.38;6030616;29;20128;-95
2022/11/09 02:51:22;;;;;;;1.27;1.17;;;;;;;-145.48;100.00;64539.38;6032632;29;20049;-95
2022/11/09 02:54:25;;;;;;;2.22;1.13;;;;;;;-145.48;100.00;64539.38;6036571;29;20960;-95
2022/11/09 02:57:28;;;;;;;1.75;1.13;;;;;;;-145.48;100.00;64539.38;6043083;29;20056;-95
2022/11/09 03:00:31;;;;;;;3.15;1.30;;;;;;;-145.48;100.00;64539.38;6052238;29;20488;-95
2022/11/09 03:03:33;;;;;;;1.95;1.20;;;;;;;-145.48;100.00;64539.38;6046779;29;20113;-95
2022/11/09 03:06:35;;;;;;;2.03;1.40;;;;;;;-145.48;100.00;64539.38;6039426;29;20096;-95
2022/11/09 03:09:45;;;;;;;1.75;1.30;;;;;;;-145.48;100.00;64539.38;6055840;29;20470;-95
2022/11/09 03:12:46;;;;;;;1.52;1.42;;;;;;;-145.48;100.00;64539.38;6046028;29;20136;-95
2022/11/09 03:15:48;;;;;;;2.17;1.30;;;;;;;-145.48;100.00;64539.38;6041496;29;20472;-94
2022/11/09 03:18:51;;;;;;;2.97;1.35;;;;;;;-145.48;100.00;64539.38;6052432;29;20049;-95
2022/11/09 03:21:53;;;;;;;1.63;1.30;;;;;;;-145.48;100.00;64539.38;6053235;29;20065;-95
2022/11/09 03:24:57;;;;;;;1.77;1.20;;;;;;;-145.48;100.00;64539.38;6048893;29;20883;-95
2022/11/09 03:28:02;;;;;;;1.55;1.27;;;;;;;-145.48;100.00;64539.38;6047714;29;20041;-95
2022/11/09 03:31:03;;;;;;;1.40;1.20;;;;;;;-145.48;100.00;64539.38;6020989;29;20056;-95
2022/11/09 03:34:05;;;;;;;2.05;1.02;;;;;;;-145.48;100.00;64539.38;6047883;29;20037;-95
2022/11/09 03:37:09;;;;;;;1.90;1.40;;;;;;;-145.48;100.00;64539.38;6056048;29;20357;-95
2022/11/09 03:40:11;;;;;;;1.50;1.20;;;;;;;-145.48;100.00;64539.38;6051864;29;20052;-95
2022/11/09 03:43:13;;;;;;;2.50;1.30;;;;;;;-145.48;100.00;64539.38;6052282;29;20139;-95
2022/11/09 03:46:15;;;;;;;1.88;1.40;;;;;;;-145.48;100.00;64539.38;6047138;29;20261;-94
2022/11/09 03:49:17;;;;;;;1.98;1.20;;;;;;;-145.48;100.00;64539.38;6043946;29;20052;-95
2022/11/09 03:52:19;;;;;;;1.45;1.10;;;;;;;-145.48;100.00;64539.38;6053883;29;20167;-96
2022/11/09 03:55:20;;;;;;;2.83;1.40;;;;;;;-145.48;100.00;64539.38;6059964;29;20377;-94
2022/11/09 03:58:22;;;;;;;3.13;1.30;;;;;;;-145.48;100.00;64539.38;6050414;29;20067;-95
2022/11/09 04:01:24;;;;;;;3.55;1.33;;;;;;;-145.48;100.00;64539.38;6052783;29;20041;-95
2022/11/09 04:04:26;;;;;;;1.98;1.00;;;;;;;-145.48;100.00;64539.38;6059232;29;20342;-95
2022/11/09 04:07:28;;;;;;;1.85;1.23;;;;;;;-145.48;100.00;64539.38;6060675;29;20067;-95
2022/11/09 04:10:29;;;;;;;2.22;1.35;;;;;;;-145.48;100.00;64539.38;6061953;29;20049;-95
2022/11/09 04:13:31;;;;;;;1.60;1.40;;;;;;;-145.48;100.00;64539.38;6035070;29;20655;-95
2022/11/09 04:16:33;;;;;;;1.75;1.23;;;;;;;-145.48;100.00;64539.38;6044953;29;20053;-94
2022/11/09 04:19:35;;;;;;;1.85;1.63;;;;;;;-145.48;100.00;64539.38;6045711;29;20041;-95
2022/11/09 04:22:36;;;;;;;1.40;1.17;;;;;;;-145.48;100.00;64539.38;6056262;29;20499;-96
2022/11/09 04:25:40;;;;;;;1.58;1.10;;;;;;;-145.48;100.00;64539.38;6045623;29;20148;-96
2022/11/09 04:28:43;;;;;;;1.63;1.20;;;;;;;-145.48;100.00;64539.38;6056264;29;20636;-95
2022/11/09 04:31:47;;;;;;;2.05;1.13;;;;;;;-145.48;100.00;64539.38;6061563;29;20044;-95
2022/11/09 04:34:49;;;;;;;2.13;1.20;;;;;;;-145.48;100.00;64539.38;6057061;29;20052;-95
2022/11/09 04:37:56;;;;;;;2.83;1.17;;;;;;;-145.48;100.00;64539.38;6056208;29;20044;-95
2022/11/09 04:41:02;;;;;;;1.75;1.13;;;;;;;-145.48;100.00;64539.38;6036760;29;20049;-95
2022/11/09 04:44:04;;;;;;;2.53;1.00;;;;;;;-145.48;100.00;64539.38;6054429;29;20048;-95
2022/11/09 04:47:06;;;;;;;1.65;1.15;;;;;;;-145.48;100.00;64539.38;6055144;29;20523;-95
2022/11/09 04:50:08;;;;;;;1.85;1.00;;;;;;;-145.48;100.00;64539.38;6043184;29;20554;-95
2022/11/09 04:53:12;;;;;;;2.42;0.95;;;;;;;-145.48;100.00;64539.38;6037010;29;20049;-95
2022/11/09 04:56:14;;;;;;;2.22;1.15;;;;;;;-145.48;100.00;64539.38;6045505;29;20376;-95
2022/11/09 04:59:16;;;;;;;2.13;1.20;;;;;;;-145.48;100.00;64539.38;6054858;29;20040;-94
2022/11/09 05:02:18;;;;;;;2.60;1.10;;;;;;;-145.48;100.00;64539.38;6044957;29;20065;-95
2022/11/09 05:05:20;;;;;;;1.60;1.10;;;;;;;-145.48;100.00;64539.38;6045804;29;20415;-95
2022/11/09 05:08:21;;;;;;;1.88;1.05;;;;;;;-145.48;100.00;64539.38;6048274;29;20427;-95
2022/11/09 05:11:23;;;;;;;1.92;1.45;;;;;;;-145.48;100.00;64539.38;6047541;29;20048;-95
2022/11/09 05:14:25;;;;;;;1.33;1.20;;;;;;;-145.48;100.00;64539.38;6046624;29;20072;-95
2022/11/09 05:17:27;;;;;;;2.22;1.50;;;;;;;-145.48;100.00;64539.38;6026948;29;20407;-95
2022/11/09 05:20:29;;;;;;;1.42;0.93;;;;;;;-145.48;100.00;64539.38;6041044;29;20097;-95
2022/11/09 05:26:52;;;;;;;1.40;1.10;;;;;;;-145.48;100.00;64539.38;6045483;29;20046;-95
2022/11/09 05:29:54;;;;;;;2.25;1.17;;;;;;;-145.48;100.00;64539.38;6064607;29;20487;-95
2022/11/09 05:32:56;;;;;;;2.33;1.00;;;;;;;-145.48;100.00;64539.38;6056765;29;20037;-95
2022/11/09 05:35:58;;;;;;;4.95;1.27;;;;;;;-145.48;100.00;64539.38;6066066;29;20043;-95
2022/11/09 05:39:00;;;;;;;1.55;1.10;;;;;;;-145.48;100.00;64539.38;6052517;29;20045;-95
2022/11/09 05:42:02;;;;;;;1.70;1.10;;;;;;;-145.48;100.00;64539.38;6054083;29;20052;-95
2022/11/09 05:45:04;;;;;;;3.97;1.70;;;;;;;-145.48;100.00;64539.38;6048487;29;20774;-95
2022/11/09 05:48:30;;;;;;;1.92;1.20;;;;;;;-145.48;100.00;64539.38;6053298;29;20044;-95
2022/11/09 05:51:31;;;;;;;2.25;1.15;;;;;;;-145.48;100.00;64539.38;6062512;29;20044;-95
2022/11/09 05:54:33;;;;;;;1.92;1.10;;;;;;;-145.48;100.00;64539.38;6061755;29;20068;-94
2022/11/09 05:57:35;;;;;;;3.20;1.23;;;;;;;-145.48;100.00;64539.38;6053685;29;20048;-95
2022/11/09 06:00:37;;;;;;;1.75;1.20;;;;;;;-145.48;100.00;64539.38;6051475;29;20056;-95
2022/11/09 06:03:40;;;;;;;2.63;1.27;;;;;;;-145.48;100.00;64539.38;6048285;29;20055;-95
2022/11/09 06:06:43;;;;;;;2.08;1.48;;;;;;;-145.48;100.00;64539.38;6039166;29;20055;-95
2022/11/09 06:09:45;;;;;;;2.20;1.20;;;;;;;-145.48;100.00;64539.38;6052934;29;20057;-95
2022/11/09 06:12:50;;;;;;;2.00;1.17;;;;;;;-145.48;100.00;64539.38;6055382;29;20049;-95
2022/11/09 06:15:53;;;;;;;2.38;1.30;;;;;;;-145.48;100.00;64539.38;6062397;29;20103;-94
2022/11/09 06:18:55;;;;;;;2.25;1.30;;;;;;;-145.48;100.00;64539.38;6057552;29;20052;-95
2022/11/09 06:21:57;;;;;;;1.63;1.33;;;;;;;-145.48;100.00;64539.38;6054291;29;20050;-95
2022/11/09 06:24:59;;;;;;;2.75;1.52;;;;;;;-145.48;100.00;64539.38;6049153;29;20518;-95
2022/11/09 06:28:01;;;;;;;4.43;1.40;;;;;;;-145.48;100.00;64539.38;6046308;29;20045;-95
2022/11/09 06:31:05;;;;;;;2.20;1.45;;;;;;;-145.48;100.00;64539.38;6055822;29;20495;-95
2022/11/09 06:34:09;;;;;;;3.45;1.52;;;;;;;-145.48;100.00;64539.38;6058053;29;20425;-94
2022/11/09 06:37:10;;;;;;;2.58;1.50;;;;;;;-145.48;100.00;64539.38;6044658;29;20075;-96
2022/11/09 06:40:13;;;;;;;1.60;1.50;;;;;;;-145.48;100.00;64539.38;6050460;29;20342;-95
2022/11/09 06:43:15;;;;;;;2.05;1.67;;;;;;;-145.48;100.00;64539.38;6064087;29;20040;-95
2022/11/09 06:46:17;;;;;;;2.17;1.50;;;;;;;-145.48;100.00;64539.38;6051931;29;20373;-95
2022/11/09 06:49:19;;;;;;;1.92;1.60;;;;;;;-145.48;100.00;64539.38;6070869;29;20092;-95
2022/11/09 06:52:21;;;;;;;3.00;1.48;;;;;;;-145.48;100.00;64539.38;6039746;29;20060;-95
2022/11/09 06:55:23;;;;;;;3.03;1.52;;;;;;;-145.48;100.00;64539.38;6032690;29;20041;-95
2022/11/09 06:58:25;;;;;;;2.40;1.63;;;;;;;-145.48;100.00;64539.38;6060058;29;20048;-95
2022/11/09 07:01:28;;;;;;;1.95;1.40;;;;;;;-145.48;100.00;64539.38;6058104;29;20088;-95
2022/11/09 07:04:30;;;;;;;2.13;1.60;;;;;;;-145.48;100.00;64539.38;6070038;29;20521;-95
2022/11/09 07:07:32;;;;;;;2.88;1.77;;;;;;;-145.48;100.00;64539.38;6069405;29;20041;-95
2022/11/09 07:10:35;;;;;;;2.47;1.70;;;;;;;-145.48;100.00;64539.38;6054381;29;20046;-95
2022/11/09 07:13:38;;;;;;;4.70;1.70;;;;;;;-145.48;100.00;64539.38;6059988;29;20045;-95
2022/11/09 07:16:39;;;;;;;1.65;1.52;;;;;;;-145.48;100.00;64539.38;6060610;29;20056;-95
2022/11/09 07:19:41;;;;;;;2.97;1.67;;;;;;;-145.48;100.00;64539.38;6061517;29;20361;-96
2022/11/09 07:22:43;;;;;;;2.28;1.50;;;;;;;-145.48;100.00;64539.38;6058887;29;20475;-94
2022/11/09 07:25:45;;;;;;;2.50;1.60;;;;;;;-145.48;100.00;64539.38;6040787;29;20045;-95
2022/11/09 07:28:47;;;;;;;3.33;1.60;;;;;;;-145.48;100.00;64539.38;6061482;29;20589;-94
2022/11/09 07:31:49;;;;;;;4.50;1.60;;;;;;;-145.48;100.00;64539.38;6059434;29;20574;-96
2022/11/09 07:34:50;;;;;;;4.85;2.28;;;;;;;-145.48;100.00;64539.38;6048736;29;20052;-95
2022/11/09 07:37:52;;;;;;;1.80;1.42;;;;;;;-145.48;100.00;64539.38;6060113;29;20060;-95
2022/11/09 07:41:01;;;;;;;2.15;1.50;;;;;;;-145.48;100.00;64539.38;6061522;29;20053;-95
2022/11/09 07:44:05;;;;;;;3.78;1.80;;;;;;;-145.48;100.00;64539.38;6048554;29;20452;-95
2022/11/09 07:47:07;;;;;;;2.40;1.50;;;;;;;-145.48;100.00;64539.38;6048350;29;20504;-95
2022/11/09 07:50:09;;;;;;;1.77;1.40;;;;;;;-145.48;100.00;64539.38;6058441;29;20045;-95
2022/11/09 07:53:13;;;;;;;2.60;1.65;;;;;;;-145.48;100.00;64539.38;6063177;29;20060;-95
2022/11/09 07:56:15;;;;;;;3.53;1.63;;;;;;;-145.48;100.00;64539.38;6056195;29;20131;-95
2022/11/09 07:59:16;;;;;;;2.17;1.30;;;;;;;-145.48;100.00;64539.38;6066404;29;20589;-95
2022/11/09 08:02:18;;;;;;;3.03;1.50;;;;;;;-145.48;100.00;64539.38;6056692;29;20515;-95
2022/11/09 08:05:20;;;;;;;4.07;1.40;;;;;;;-145.48;100.00;64539.38;6060396;29;20052;-95
2022/11/09 08:08:22;;;;;;;1.75;1.40;;;;;;;-145.48;100.00;64539.38;6059911;29;20479;-94
2022/11/09 08:11:25;;;;;;;2.28;1.45;;;;;;;-145.48;100.00;64539.38;6042043;29;20045;-95
2022/11/09 08:14:27;;;;;;;2.42;1.40;;;;;;;-145.48;100.00;64539.38;6043988;29;20658;-95
2022/11/09 08:17:30;;;;;;;2.72;1.48;;;;;;;-145.48;100.00;64539.38;6045531;29;20045;-95
2022/11/09 08:20:32;;;;;;;2.83;1.30;;;;;;;-145.48;100.00;64539.38;6044903;29;20209;-95
2022/11/09 08:23:34;;;;;;;2.42;1.30;;;;;;;-145.48;100.00;64539.38;6051591;29;20044;-94
2022/11/09 08:26:36;;;;;;;4.15;1.60;;;;;;;-145.48;100.00;64539.38;6047460;29;20198;-94
2022/11/09 08:29:38;;;;;;;2.60;1.50;;;;;;;-145.48;100.00;64539.38;6054811;29;20200;-95
2022/11/09 08:32:44;;;;;;;1.42;1.33;;;;;;;-145.48;100.00;64539.38;6045665;29;20083;-95
2022/11/09 08:35:46;;;;;;;4.03;1.50;;;;;;;-145.48;100.00;64539.38;6045711;29;20105;-95
2022/11/09 08:38:54;;;;;;;3.38;1.38;;;;;;;-145.48;100.00;64539.38;6044997;29;20046;-95
2022/11/09 08:41:57;;;;;;;3.72;1.85;;;;;;;-145.48;100.00;64539.38;6058399;29;20123;-93
2022/11/09 08:44:59;;;;;;;2.22;1.33;;;;;;;-145.48;100.00;64539.38;6048388;29;20435;-94
2022/11/09 08:48:03;;;;;;;5.63;1.98;;;;;;;-145.48;100.00;64539.38;6057988;29;20126;-93
2022/11/09 08:51:05;;;;;;;2.88;1.60;;;;;;;-145.48;100.00;64539.38;6055401;29;20120;-92
2022/11/09 08:54:10;;;;;;;3.17;1.40;;;;;;;-145.48;100.00;64539.38;6045391;29;20053;-92
2022/11/09 08:57:12;;;;;;;3.35;1.33;;;;;;;-145.48;100.00;64539.38;6039119;29;20461;-92
2022/11/09 09:00:14;;;;;;;3.10;1.50;;;;;;;-145.48;100.00;64539.38;6050732;29;20052;-93
2022/11/09 09:03:18;;;;;;;1.70;1.40;;;;;;;-145.48;100.00;64539.38;6053919;29;20156;-94
2022/11/09 09:06:20;;;;;;;5.28;1.20;;;;;;;-145.48;100.00;64539.38;6048907;29;20160;-94
2022/11/09 09:09:26;;;;;;;4.65;1.50;;;;;;;-145.48;100.00;64539.38;6029834;29;20529;-94
2022/11/09 09:12:28;;;;;;;2.38;1.52;;;;;;;-145.48;100.00;64539.38;6035579;29;20132;-95
2022/11/09 09:15:30;;;;;;;1.55;1.20;;;;;;;-145.48;100.00;64539.38;6036587;29;20048;-96
2022/11/09 09:18:32;;;;;;;1.77;1.27;;;;;;;-145.48;100.00;64539.38;6035127;29;20043;-96
2022/11/09 09:21:34;;;;;;;1.60;1.02;;;;;;;-145.48;100.00;64539.38;6038233;29;20132;-96
2022/11/09 09:24:36;;;;;;;1.13;1.02;;;;;;;-145.48;100.00;64539.38;6030689;29;20088;-95
2022/11/09 09:27:38;;;;;;;1.52;1.10;;;;;;;-145.48;100.00;64539.38;6033554;29;20078;-95
2022/11/09 09:30:40;;;;;;;3.05;1.15;;;;;;;-145.48;100.00;64539.38;6021416;29;20759;-95
2022/11/09 09:33:41;;;;;;;1.77;1.08;;;;;;;-145.48;100.00;64539.38;6033416;29;20496;-95
2022/11/09 09:36:43;;;;;;;1.27;1.00;;;;;;;-145.48;100.00;64539.38;6034726;29;20526;-94
2022/11/09 09:39:49;;;;;;;2.25;1.02;;;;;;;-145.48;100.00;64539.38;6031822;29;20092;-94
2022/11/09 09:42:53;;;;;;;1.73;1.10;;;;;;;-145.48;100.00;64539.38;6038871;29;20052;-93
2022/11/09 09:45:58;;;;;;;1.55;1.00;;;;;;;-145.48;100.00;64539.38;6033856;29;20045;-93
2022/11/09 09:49:28;;;;;;;1.23;1.00;;;;;;;-145.48;100.00;64539.38;6039157;29;20045;-94
2022/11/09 09:52:39;;;;;;;;;;;;;;;-145.48;100.00;64539.38;6045362;29;20048;-94
2022/11/09 09:55:44;;;;;;;0.88;0.88;;;;;;;-145.48;100.00;64539.38;6041765;29;20454;-94
2022/11/09 09:59:09;;;;;;;1.67;1.08;;;;;;;-145.48;100.00;64539.38;6036696;29;20073;-94
2022/11/09 10:02:24;;;;;;;2.22;1.35;;;;;;;-145.48;100.00;64539.38;6053009;29;20054;-94
2022/11/09 10:06:10;;;;;;;2.72;1.08;;;;;;;-145.48;100.00;64539.38;6038643;29;20042;-94
2022/11/09 10:09:40;;;;;;;2.50;0.93;;;;;;;-145.48;100.00;64539.38;6010078;29;20061;-94
2022/11/09 10:13:00;;;;;;;2.15;0.90;;;;;;;-145.48;100.00;64539.38;6006544;29;20057;-94
2022/11/09 10:16:37;;;;;;;2.50;0.97;;;;;;;-145.48;100.00;64539.38;5989132;29;20068;-95
2022/11/09 10:19:54;;;;;;;1.48;0.73;;;;;;;-145.48;100.00;64539.38;5990784;29;20068;-95
2022/11/09 10:23:22;;;;;;;3.08;0.73;;;;;;;-145.48;100.00;64539.38;6000179;29;20511;-95
2022/11/09 10:26:41;;;;;;;2.65;0.90;;;;;;;-145.48;100.00;64539.38;5980130;29;20151;-95
2022/11/09 10:29:47;;;;;;;1.27;0.93;;;;;;;-145.48;100.00;64539.38;6002706;29;20053;-95
2022/11/09 10:33:17;;;;;;;3.22;0.80;;;;;;;-145.48;100.00;64539.38;5993748;29;20053;-95
2022/11/09 10:36:26;;;;;;;5.22;0.77;;;;;;;-145.48;100.00;64539.38;6008895;29;20141;-93
2022/11/09 10:39:49;;;;;;;1.80;0.70;;;;;;;-145.48;100.00;64539.38;5990417;29;20210;-93
2022/11/09 10:43:13;;;;;;;3.05;0.70;;;;;;;-145.48;100.00;64539.38;6007619;29;20140;-92
2022/11/09 10:47:13;;;;;;;1.92;0.77;;;;;;;-145.48;100.00;64539.38;6028903;29;20066;-93
2022/11/09 10:50:37;;;;;;;3.80;0.60;;;;;;;-145.48;100.00;64539.38;6035444;29;20097;-93
2022/11/09 10:54:13;;;;;;;1.88;0.73;;;;;;;-145.48;100.00;64539.38;6038759;29;20049;-92
2022/11/09 10:57:34;;;;;;;2.75;0.70;;;;;;;-145.48;100.00;64539.38;6030036;29;20045;-93
2022/11/09 11:00:59;;;;;;;;;;;;;;;-145.48;100.00;64539.38;6036696;29;20065;-94
2022/11/09 11:04:23;;;;;;;2.55;1.00;;;;;;;-145.48;100.00;64539.38;6025763;29;20011;-93
2022/11/09 11:07:45;;;;;;;3.28;0.98;;;;;;;-145.48;100.00;64539.38;6028020;29;20061;-93
2022/11/09 11:11:17;;;;;;;2.38;0.70;;;;;;;-145.48;100.00;64539.38;6028375;29;20049;-94
2022/11/09 11:14:53;;;;;;;3.50;0.90;;;;;;;-145.48;100.00;64539.38;6029347;29;20057;-93
2022/11/09 11:18:26;;;;;;;;;;;;;;;-145.48;100.00;64539.38;6029916;29;20424;-94
2022/11/09 11:22:21;;;;;;;5.35;0.70;;;;;;;-145.48;100.00;64539.38;6031569;29;20704;-93
2022/11/09 11:25:54;;;;;;;2.03;0.93;;;;;;;-145.48;100.00;64539.38;6035897;29;20151;-93
2022/11/09 11:29:38;;;;;;;1.85;0.90;;;;;;;-145.48;100.00;64539.38;6035972;29;20057;-94
2022/11/09 11:32:58;;;;;;;2.03;0.75;;;;;;;-145.48;100.00;64539.38;6029979;29;20077;-94
2022/11/09 11:36:48;;;;;;;1.73;0.95;;;;;;;-145.48;100.00;64539.38;6040893;29;20444;-93
2022/11/09 11:40:16;;;;;;;3.13;0.88;;;;;;;-145.48;100.00;64539.38;6033803;29;20496;-94
2022/11/09 11:43:52;;;;;;;2.53;0.90;;;;;;;-145.48;100.00;64539.38;6033864;29;20049;-94
2022/11/09 11:47:40;;;;;;;1.90;0.98;;;;;;;-145.48;100.00;64539.38;6036482;29;20066;-95
2022/11/09 11:51:19;;;;;;;3.10;0.90;;;;;;;-145.48;100.00;64539.38;6034824;29;20500;-94
2022/11/09 11:55:06;;;;;;;1.33;0.70;;;;;;;-145.48;100.00;64539.38;6051463;29;20060;-95
2022/11/09 11:59:05;;;;;;;1.20;0.90;;;;;;;-145.48;100.00;64539.38;6048069;29;20053;-94
2022/11/09 12:02:47;;;;;;;2.67;1.13;;;;;;;-145.48;100.00;64539.38;6031404;29;20083;-95
2022/11/09 12:06:19;;;;;;;3.78;1.15;;;;;;;-145.48;100.00;64539.38;6038946;29;20088;-96
2022/11/09 12:10:01;;;;;;;2.15;0.95;;;;;;;-145.48;100.00;64539.38;6044116;29;20057;-95
2022/11/09 12:14:19;;;;;;;2.78;1.02;;;;;;;-145.48;100.00;64539.38;6056870;29;20313;-95
2022/11/09 12:18:17;;;;;;;1.52;0.73;;;;;;;-145.48;100.00;64539.38;6004056;29;20520;-96
2022/11/09 12:21:52;;;;;;;2.25;0.93;;;;;;;-145.48;100.00;64539.38;6005967;29;20466;-96
2022/11/09 12:25:17;;;;;;;1.55;0.90;;;;;;;-145.48;100.00;64539.38;6004114;29;20136;-96
2022/11/09 12:28:54;;;;;;;3.45;1.05;;;;;;;-145.48;100.00;64539.38;6010564;29;20085;-95
2022/11/09 12:32:37;;;;;;;1.67;0.80;;;;;;;-145.48;100.00;64539.38;6003963;29;20049;-95
2022/11/09 12:36:07;;;;;;;2.10;0.75;;;;;;;-145.48;100.00;64539.38;6007026;29;20061;-95
2022/11/09 12:39:52;;;;;;;2.08;1.05;;;;;;;-145.48;100.00;64539.38;6007719;29;20144;-95
2022/11/09 12:43:27;;;;;;;2.67;0.85;;;;;;;-145.48;100.00;64539.38;6011253;29;20057;-94
2022/11/09 12:46:59;;;;;;;2.20;0.65;;;;;;;-145.48;100.00;64539.38;5994945;29;20057;-94
2022/11/09 12:50:24;;;;;;;1.63;0.80;;;;;;;-145.48;100.00;64539.38;6054941;29;20570;-95
2022/11/09 12:53:45;;;;;;;1.77;0.70;;;;;;;-145.48;100.00;64539.38;6051650;29;20050;-94
2022/11/09 12:57:10;;;;;;;2.45;0.82;;;;;;;-145.48;100.00;64539.38;6039778;29;20049;-95
2022/11/09 13:00:34;;;;;;;2.70;0.80;;;;;;;-145.48;100.00;64539.38;6036210;29;20068;-96
2022/11/09 13:03:57;;;;;;;1.58;0.63;;;;;;;-145.48;100.00;64539.38;6049734;29;20056;-95
2022/11/09 13:07:27;;;;;;;1.40;0.63;;;;;;;-145.48;100.00;64539.38;6043082;29;20057;-95
2022/11/09 13:11:07;;;;;;;1.27;0.85;;;;;;;-145.48;100.00;64539.38;6045141;29;20420;-95
2022/11/09 13:14:37;;;;;;;2.17;0.70;;;;;;;-145.48;100.00;64539.38;6039526;29;20611;-96
2022/11/09 13:18:21;;;;;;;0.50;0.50;;;;;;;-145.48;100.00;64539.38;6041454;29;20069;-96
2022/11/09 13:21:41;;;;;;;1.95;1.10;;;;;;;-145.48;100.00;64539.38;6047984;29;20080;-96
2022/11/09 13:25:41;;;;;;;2.33;1.08;;;;;;;-145.48;100.00;64539.38;6042582;29;20424;-95
2022/11/09 13:29:14;;;;;;;2.95;0.88;;;;;;;-145.48;100.00;64539.38;6032056;29;20501;-95
2022/11/09 13:32:34;;;;;;;1.35;1.02;;;;;;;-145.48;100.00;64539.38;6038286;29;20519;-96
2022/11/09 13:36:05;;;;;;;5.07;1.33;;;;;;;-145.48;100.00;64539.38;6038924;29;20160;-94
2022/11/09 13:39:30;;;;;;;2.28;0.70;;;;;;;-145.48;100.00;64539.38;6026413;29;20081;-95
2022/11/09 13:43:09;;;;;;;1.73;0.80;;;;;;;-145.48;100.00;64539.38;6051843;29;20049;-95
2022/11/09 13:46:37;;;;;;;1.52;0.80;;;;;;;-145.48;100.00;64539.38;6051522;29;20048;-96
2022/11/09 13:49:57;;;;;;;3.42;0.63;;;;;;;-145.48;100.00;64539.38;6047491;29;20632;-96
2022/11/09 13:53:36;;;;;;;0.65;0.43;;;;;;;-145.48;100.00;64539.38;6054996;29;20140;-95
2022/11/09 13:56:58;;;;;;;1.35;0.60;;;;;;;-145.48;100.00;64539.38;6054208;29;20507;-96
2022/11/09 14:00:22;;;;;;;1.27;0.70;;;;;;;-145.48;100.00;64539.38;6041513;29;20057;-96
2022/11/09 14:03:49;;;;;;;3.25;0.90;;;;;;;-145.48;100.00;64539.38;6042663;29;20096;-96
2022/11/09 14:07:24;;;;;;;2.10;0.65;;;;;;;-145.48;100.00;64539.38;6048814;29;20076;-95
2022/11/09 14:10:58;;;;;;;2.55;0.70;;;;;;;-145.48;100.00;64539.38;6042581;29;20052;-96
2022/11/09 14:14:34;;;;;;;4.03;1.00;;;;;;;-145.48;100.00;64539.38;6044055;29;20135;-96
2022/11/09 14:18:14;;;;;;;1.08;0.52;;;;;;;-145.48;100.00;64539.38;6038640;29;20041;-96
2022/11/09 14:21:37;;;;;;;1.98;0.90;;;;;;;-145.48;100.00;64539.38;6023037;29;20075;-96
2022/11/09 14:24:57;;;;;;;3.30;0.80;;;;;;;-145.48;100.00;64539.38;6028455;29;20057;-96
2022/11/09 14:28:22;;;;;;;1.27;0.68;;;;;;;-145.48;100.00;64539.38;6033348;29;20404;-96
2022/11/09 14:31:44;;;;;;;2.97;0.70;;;;;;;-145.48;100.00;64539.38;6023383;29;20164;-96